sensor_id;sensor_type;location;lat;lon;timestamp;P1;durP1;ratioP1;P2;durP2;ratioP2
8058;SDS011;4072;42.668;23.396;2022-07-30T00:02:10;6.22;;;5.60;;
8058;SDS011;4072;42.668;23.396;2022-07-30T00:04:38;7.75;;;4.40;;
8058;SDS011;4072;42.668;23.396;2022-07-30T00:07:06;6.57;;;3.97;;
8058;SDS011;4072;42.668;23.396;2022-07-30T00:09:34;6.03;;;3.65;;
8058;SDS011;4072;42.668;23.396;2022-07-30T00:12:01;5.05;;;4.40;;
8058;SDS011;4072;42.668;23.396;2022-07-30T00:14:29;4.32;;;3.92;;
8058;SDS011;4072;42.668;23.396;2022-07-30T00:16:57;5.30;;;4.28;;
8058;SDS011;4072;42.668;23.396;2022-07-30T00:19:27;5.18;;;3.42;;
8058;SDS011;4072;42.668;23.396;2022-07-30T00:21:55;4.22;;;3.83;;
8058;SDS011;4072;42.668;23.396;2022-07-30T00:24:23;3.97;;;3.42;;
8058;SDS011;4072;42.668;23.396;2022-07-30T00:26:51;3.85;;;3.55;;
8058;SDS011;4072;42.668;23.396;2022-07-30T00:29:19;4.40;;;4.03;;
8058;SDS011;4072;42.668;23.396;2022-07-30T00:31:47;3.63;;;3.42;;
8058;SDS011;4072;42.668;23.396;2022-07-30T00:34:15;8.25;;;3.65;;
8058;SDS011;4072;42.668;23.396;2022-07-30T00:36:45;6.47;;;5.03;;
8058;SDS011;4072;42.668;23.396;2022-07-30T00:39:13;4.30;;;3.63;;
8058;SDS011;4072;42.668;23.396;2022-07-30T00:41:54;5.43;;;4.87;;
8058;SDS011;4072;42.668;23.396;2022-07-30T00:44:23;8.70;;;7.47;;
8058;SDS011;4072;42.668;23.396;2022-07-30T00:46:51;8.10;;;6.20;;
8058;SDS011;4072;42.668;23.396;2022-07-30T00:49:19;7.27;;;6.37;;
8058;SDS011;4072;42.668;23.396;2022-07-30T00:51:50;9.03;;;5.80;;
8058;SDS011;4072;42.668;23.396;2022-07-30T00:54:18;8.17;;;5.57;;
8058;SDS011;4072;42.668;23.396;2022-07-30T00:56:47;5.00;;;4.47;;
8058;SDS011;4072;42.668;23.396;2022-07-30T00:59:15;5.63;;;4.87;;
8058;SDS011;4072;42.668;23.396;2022-07-30T01:01:43;4.03;;;3.73;;
8058;SDS011;4072;42.668;23.396;2022-07-30T01:04:11;4.33;;;4.03;;
8058;SDS011;4072;42.668;23.396;2022-07-30T01:06:40;5.27;;;3.93;;
8058;SDS011;4072;42.668;23.396;2022-07-30T01:09:10;4.27;;;3.87;;
8058;SDS011;4072;42.668;23.396;2022-07-30T01:11:38;4.27;;;3.87;;
8058;SDS011;4072;42.668;23.396;2022-07-30T01:14:14;4.13;;;3.83;;
8058;SDS011;4072;42.668;23.396;2022-07-30T01:16:41;4.03;;;3.73;;
8058;SDS011;4072;42.668;23.396;2022-07-30T01:19:11;3.70;;;3.40;;
8058;SDS011;4072;42.668;23.396;2022-07-30T01:21:59;5.40;;;3.90;;
8058;SDS011;4072;42.668;23.396;2022-07-30T01:24:32;4.50;;;4.00;;
8058;SDS011;4072;42.668;23.396;2022-07-30T01:27:03;4.47;;;4.07;;
8058;SDS011;4072;42.668;23.396;2022-07-30T01:29:33;8.07;;;4.43;;
8058;SDS011;4072;42.668;23.396;2022-07-30T01:32:02;5.70;;;4.00;;
8058;SDS011;4072;42.668;23.396;2022-07-30T01:34:33;4.57;;;4.17;;
8058;SDS011;4072;42.668;23.396;2022-07-30T01:37:01;4.23;;;3.93;;
8058;SDS011;4072;42.668;23.396;2022-07-30T01:39:30;6.13;;;4.00;;
8058;SDS011;4072;42.668;23.396;2022-07-30T01:41:59;4.33;;;3.93;;
8058;SDS011;4072;42.668;23.396;2022-07-30T01:44:32;4.30;;;3.90;;
8058;SDS011;4072;42.668;23.396;2022-07-30T01:47:00;6.43;;;3.80;;
8058;SDS011;4072;42.668;23.396;2022-07-30T01:49:29;4.30;;;3.90;;
8058;SDS011;4072;42.668;23.396;2022-07-30T01:51:59;6.10;;;5.10;;
8058;SDS011;4072;42.668;23.396;2022-07-30T01:54:28;4.90;;;4.47;;
8058;SDS011;4072;42.668;23.396;2022-07-30T01:56:57;6.20;;;4.07;;
8058;SDS011;4072;42.668;23.396;2022-07-30T01:59:26;5.77;;;4.07;;
8058;SDS011;4072;42.668;23.396;2022-07-30T02:01:56;6.33;;;4.10;;
8058;SDS011;4072;42.668;23.396;2022-07-30T02:04:25;6.60;;;4.37;;
8058;SDS011;4072;42.668;23.396;2022-07-30T02:06:55;5.80;;;4.17;;
8058;SDS011;4072;42.668;23.396;2022-07-30T02:09:27;5.97;;;4.57;;
8058;SDS011;4072;42.668;23.396;2022-07-30T02:11:55;4.87;;;4.47;;
8058;SDS011;4072;42.668;23.396;2022-07-30T02:14:44;4.70;;;4.30;;
8058;SDS011;4072;42.668;23.396;2022-07-30T02:17:15;4.50;;;4.10;;
8058;SDS011;4072;42.668;23.396;2022-07-30T02:19:44;4.60;;;4.17;;
8058;SDS011;4072;42.668;23.396;2022-07-30T02:22:14;5.80;;;4.40;;
8058;SDS011;4072;42.668;23.396;2022-07-30T02:24:44;4.40;;;4.00;;
8058;SDS011;4072;42.668;23.396;2022-07-30T02:27:15;7.07;;;4.60;;
8058;SDS011;4072;42.668;23.396;2022-07-30T02:29:44;4.63;;;4.23;;
8058;SDS011;4072;42.668;23.396;2022-07-30T02:32:16;4.03;;;3.73;;
8058;SDS011;4072;42.668;23.396;2022-07-30T02:34:47;4.53;;;4.00;;
8058;SDS011;4072;42.668;23.396;2022-07-30T02:37:16;4.83;;;4.13;;
8058;SDS011;4072;42.668;23.396;2022-07-30T02:40:09;6.43;;;4.40;;
8058;SDS011;4072;42.668;23.396;2022-07-30T02:42:37;4.47;;;4.07;;
8058;SDS011;4072;42.668;23.396;2022-07-30T02:45:06;4.73;;;4.20;;
8058;SDS011;4072;42.668;23.396;2022-07-30T02:47:36;4.50;;;4.10;;
8058;SDS011;4072;42.668;23.396;2022-07-30T02:50:05;4.90;;;3.87;;
8058;SDS011;4072;42.668;23.396;2022-07-30T02:52:34;4.60;;;4.20;;
8058;SDS011;4072;42.668;23.396;2022-07-30T02:55:02;5.43;;;4.63;;
8058;SDS011;4072;42.668;23.396;2022-07-30T02:57:30;7.20;;;4.53;;
8058;SDS011;4072;42.668;23.396;2022-07-30T03:00:00;5.27;;;4.30;;
8058;SDS011;4072;42.668;23.396;2022-07-30T03:02:30;4.43;;;4.03;;
8058;SDS011;4072;42.668;23.396;2022-07-30T03:05:01;4.33;;;3.93;;
8058;SDS011;4072;42.668;23.396;2022-07-30T03:07:29;6.53;;;4.67;;
8058;SDS011;4072;42.668;23.396;2022-07-30T03:09:58;6.27;;;3.97;;
8058;SDS011;4072;42.668;23.396;2022-07-30T03:12:27;4.77;;;4.27;;
8058;SDS011;4072;42.668;23.396;2022-07-30T03:14:57;4.90;;;4.50;;
8058;SDS011;4072;42.668;23.396;2022-07-30T03:17:25;5.47;;;4.97;;
8058;SDS011;4072;42.668;23.396;2022-07-30T03:19:54;4.63;;;4.23;;
8058;SDS011;4072;42.668;23.396;2022-07-30T03:22:25;4.27;;;3.93;;
8058;SDS011;4072;42.668;23.396;2022-07-30T03:24:58;5.53;;;4.07;;
8058;SDS011;4072;42.668;23.396;2022-07-30T03:27:26;6.37;;;4.43;;
8058;SDS011;4072;42.668;23.396;2022-07-30T03:29:55;5.93;;;4.07;;
8058;SDS011;4072;42.668;23.396;2022-07-30T03:32:23;7.63;;;4.77;;
8058;SDS011;4072;42.668;23.396;2022-07-30T03:34:52;5.23;;;4.83;;
8058;SDS011;4072;42.668;23.396;2022-07-30T03:37:22;8.73;;;5.03;;
8058;SDS011;4072;42.668;23.396;2022-07-30T03:39:52;5.17;;;4.70;;
8058;SDS011;4072;42.668;23.396;2022-07-30T03:42:20;6.57;;;4.70;;
8058;SDS011;4072;42.668;23.396;2022-07-30T03:44:48;7.20;;;6.30;;
8058;SDS011;4072;42.668;23.396;2022-07-30T03:47:16;6.87;;;5.67;;
8058;SDS011;4072;42.668;23.396;2022-07-30T03:49:46;6.77;;;5.97;;
8058;SDS011;4072;42.668;23.396;2022-07-30T03:52:14;8.93;;;6.63;;
8058;SDS011;4072;42.668;23.396;2022-07-30T03:54:43;8.37;;;6.97;;
8058;SDS011;4072;42.668;23.396;2022-07-30T03:57:14;7.17;;;6.50;;
8058;SDS011;4072;42.668;23.396;2022-07-30T03:59:47;8.23;;;6.67;;
8058;SDS011;4072;42.668;23.396;2022-07-30T04:02:17;7.80;;;6.70;;
8058;SDS011;4072;42.668;23.396;2022-07-30T04:04:45;6.50;;;5.90;;
8058;SDS011;4072;42.668;23.396;2022-07-30T04:07:13;6.93;;;6.13;;
8058;SDS011;4072;42.668;23.396;2022-07-30T04:09:41;7.17;;;6.17;;
8058;SDS011;4072;42.668;23.396;2022-07-30T04:12:09;6.17;;;5.57;;
8058;SDS011;4072;42.668;23.396;2022-07-30T04:14:42;6.07;;;5.47;;
8058;SDS011;4072;42.668;23.396;2022-07-30T04:17:11;11.10;;;6.07;;
8058;SDS011;4072;42.668;23.396;2022-07-30T04:19:43;8.40;;;7.00;;
8058;SDS011;4072;42.668;23.396;2022-07-30T04:22:18;10.93;;;7.97;;
8058;SDS011;4072;42.668;23.396;2022-07-30T04:24:47;10.73;;;8.13;;
8058;SDS011;4072;42.668;23.396;2022-07-30T04:27:18;15.17;;;7.77;;
8058;SDS011;4072;42.668;23.396;2022-07-30T04:29:49;10.20;;;6.80;;
8058;SDS011;4072;42.668;23.396;2022-07-30T04:32:19;11.60;;;6.93;;
8058;SDS011;4072;42.668;23.396;2022-07-30T04:34:47;10.13;;;6.60;;
8058;SDS011;4072;42.668;23.396;2022-07-30T04:37:15;8.40;;;6.43;;
8058;SDS011;4072;42.668;23.396;2022-07-30T04:39:44;8.03;;;6.23;;
8058;SDS011;4072;42.668;23.396;2022-07-30T04:42:12;8.30;;;6.47;;
8058;SDS011;4072;42.668;23.396;2022-07-30T04:44:40;7.63;;;6.70;;
8058;SDS011;4072;42.668;23.396;2022-07-30T04:47:10;7.77;;;6.53;;
8058;SDS011;4072;42.668;23.396;2022-07-30T04:49:39;8.63;;;6.33;;
8058;SDS011;4072;42.668;23.396;2022-07-30T04:52:07;7.73;;;6.33;;
8058;SDS011;4072;42.668;23.396;2022-07-30T04:54:36;10.70;;;5.57;;
8058;SDS011;4072;42.668;23.396;2022-07-30T04:57:04;10.37;;;6.37;;
8058;SDS011;4072;42.668;23.396;2022-07-30T04:59:34;12.27;;;6.40;;
8058;SDS011;4072;42.668;23.396;2022-07-30T05:02:02;10.20;;;6.90;;
8058;SDS011;4072;42.668;23.396;2022-07-30T05:04:32;11.20;;;6.27;;
8058;SDS011;4072;42.668;23.396;2022-07-30T05:07:01;7.57;;;6.13;;
8058;SDS011;4072;42.668;23.396;2022-07-30T05:09:30;7.65;;;6.30;;
8058;SDS011;4072;42.668;23.396;2022-07-30T05:11:58;6.97;;;6.30;;
8058;SDS011;4072;42.668;23.396;2022-07-30T05:14:27;12.15;;;6.57;;
8058;SDS011;4072;42.668;23.396;2022-07-30T05:16:55;7.13;;;6.32;;
8058;SDS011;4072;42.668;23.396;2022-07-30T05:19:24;8.98;;;6.45;;
8058;SDS011;4072;42.668;23.396;2022-07-30T05:21:56;14.30;;;9.38;;
8058;SDS011;4072;42.668;23.396;2022-07-30T05:24:30;7.78;;;6.47;;
8058;SDS011;4072;42.668;23.396;2022-07-30T05:26:58;9.52;;;6.57;;
8058;SDS011;4072;42.668;23.396;2022-07-30T05:29:27;11.82;;;8.20;;
8058;SDS011;4072;42.668;23.396;2022-07-30T05:31:59;10.90;;;7.75;;
8058;SDS011;4072;42.668;23.396;2022-07-30T05:34:28;9.32;;;7.40;;
8058;SDS011;4072;42.668;23.396;2022-07-30T05:36:58;9.68;;;7.22;;
8058;SDS011;4072;42.668;23.396;2022-07-30T05:39:26;7.70;;;6.63;;
8058;SDS011;4072;42.668;23.396;2022-07-30T05:41:54;9.65;;;6.50;;
8058;SDS011;4072;42.668;23.396;2022-07-30T05:44:22;10.57;;;6.90;;
8058;SDS011;4072;42.668;23.396;2022-07-30T05:46:50;8.50;;;6.75;;
8058;SDS011;4072;42.668;23.396;2022-07-30T05:49:18;6.55;;;5.90;;
8058;SDS011;4072;42.668;23.396;2022-07-30T05:51:48;8.00;;;5.97;;
8058;SDS011;4072;42.668;23.396;2022-07-30T05:54:18;6.38;;;5.15;;
8058;SDS011;4072;42.668;23.396;2022-07-30T05:56:50;6.70;;;6.00;;
8058;SDS011;4072;42.668;23.396;2022-07-30T05:59:17;6.25;;;5.65;;
8058;SDS011;4072;42.668;23.396;2022-07-30T06:01:46;8.32;;;6.43;;
8058;SDS011;4072;42.668;23.396;2022-07-30T06:04:14;14.02;;;12.32;;
8058;SDS011;4072;42.668;23.396;2022-07-30T06:06:42;7.28;;;6.15;;
8058;SDS011;4072;42.668;23.396;2022-07-30T06:09:10;10.43;;;9.32;;
8058;SDS011;4072;42.668;23.396;2022-07-30T06:11:40;10.82;;;7.75;;
8058;SDS011;4072;42.668;23.396;2022-07-30T06:14:08;10.55;;;5.30;;
8058;SDS011;4072;42.668;23.396;2022-07-30T06:16:38;11.10;;;6.07;;
8058;SDS011;4072;42.668;23.396;2022-07-30T06:19:06;10.25;;;5.82;;
8058;SDS011;4072;42.668;23.396;2022-07-30T06:21:45;9.15;;;5.45;;
8058;SDS011;4072;42.668;23.396;2022-07-30T06:24:32;5.30;;;4.90;;
8058;SDS011;4072;42.668;23.396;2022-07-30T06:27:01;5.53;;;4.43;;
8058;SDS011;4072;42.668;23.396;2022-07-30T06:29:31;10.38;;;4.60;;
8058;SDS011;4072;42.668;23.396;2022-07-30T06:31:59;4.72;;;4.25;;
8058;SDS011;4072;42.668;23.396;2022-07-30T06:34:27;5.55;;;4.50;;
8058;SDS011;4072;42.668;23.396;2022-07-30T06:36:55;5.70;;;4.82;;
8058;SDS011;4072;42.668;23.396;2022-07-30T06:39:23;6.93;;;4.28;;
8058;SDS011;4072;42.668;23.396;2022-07-30T06:42:13;5.32;;;4.78;;
8058;SDS011;4072;42.668;23.396;2022-07-30T06:44:41;5.10;;;4.70;;
8058;SDS011;4072;42.668;23.396;2022-07-30T06:47:11;5.18;;;4.45;;
8058;SDS011;4072;42.668;23.396;2022-07-30T06:49:39;5.28;;;4.88;;
8058;SDS011;4072;42.668;23.396;2022-07-30T06:52:07;5.55;;;4.43;;
8058;SDS011;4072;42.668;23.396;2022-07-30T06:54:35;5.18;;;4.22;;
8058;SDS011;4072;42.668;23.396;2022-07-30T06:57:03;5.18;;;4.68;;
8058;SDS011;4072;42.668;23.396;2022-07-30T06:59:33;5.90;;;5.28;;
8058;SDS011;4072;42.668;23.396;2022-07-30T07:02:20;5.38;;;4.22;;
8058;SDS011;4072;42.668;23.396;2022-07-30T07:04:48;4.50;;;4.10;;
8058;SDS011;4072;42.668;23.396;2022-07-30T07:07:16;4.68;;;4.38;;
8058;SDS011;4072;42.668;23.396;2022-07-30T07:10:05;6.63;;;4.90;;
8058;SDS011;4072;42.668;23.396;2022-07-30T07:12:33;8.68;;;7.78;;
8058;SDS011;4072;42.668;23.396;2022-07-30T07:15:04;4.78;;;4.35;;
8058;SDS011;4072;42.668;23.396;2022-07-30T07:17:33;5.13;;;4.70;;
8058;SDS011;4072;42.668;23.396;2022-07-30T07:20:00;5.20;;;4.65;;
8058;SDS011;4072;42.668;23.396;2022-07-30T07:22:28;5.97;;;3.83;;
8058;SDS011;4072;42.668;23.396;2022-07-30T07:24:57;5.10;;;4.65;;
8058;SDS011;4072;42.668;23.396;2022-07-30T07:27:25;4.80;;;4.30;;
8058;SDS011;4072;42.668;23.396;2022-07-30T07:29:53;4.65;;;4.25;;
8058;SDS011;4072;42.668;23.396;2022-07-30T07:32:32;5.60;;;5.20;;
8058;SDS011;4072;42.668;23.396;2022-07-30T07:35:00;6.82;;;4.55;;
8058;SDS011;4072;42.668;23.396;2022-07-30T07:37:28;4.57;;;4.18;;
8058;SDS011;4072;42.668;23.396;2022-07-30T07:39:56;9.77;;;6.93;;
8058;SDS011;4072;42.668;23.396;2022-07-30T07:42:25;3.95;;;3.60;;
8058;SDS011;4072;42.668;23.396;2022-07-30T07:44:53;4.47;;;4.10;;
8058;SDS011;4072;42.668;23.396;2022-07-30T07:47:21;4.88;;;4.10;;
8058;SDS011;4072;42.668;23.396;2022-07-30T07:49:51;4.68;;;4.28;;
8058;SDS011;4072;42.668;23.396;2022-07-30T07:52:23;5.15;;;4.00;;
8058;SDS011;4072;42.668;23.396;2022-07-30T07:54:51;4.88;;;4.28;;
8058;SDS011;4072;42.668;23.396;2022-07-30T07:57:19;6.70;;;4.43;;
8058;SDS011;4072;42.668;23.396;2022-07-30T07:59:49;4.80;;;4.40;;
8058;SDS011;4072;42.668;23.396;2022-07-30T08:02:20;6.50;;;4.57;;
8058;SDS011;4072;42.668;23.396;2022-07-30T08:04:47;4.18;;;3.85;;
8058;SDS011;4072;42.668;23.396;2022-07-30T08:07:18;6.45;;;4.70;;
8058;SDS011;4072;42.668;23.396;2022-07-30T08:09:46;4.40;;;4.00;;
8058;SDS011;4072;42.668;23.396;2022-07-30T08:12:14;4.80;;;4.35;;
8058;SDS011;4072;42.668;23.396;2022-07-30T08:14:42;4.18;;;3.88;;
8058;SDS011;4072;42.668;23.396;2022-07-30T08:17:10;6.32;;;4.35;;
8058;SDS011;4072;42.668;23.396;2022-07-30T08:19:38;4.55;;;4.15;;
8058;SDS011;4072;42.668;23.396;2022-07-30T08:22:06;4.57;;;4.20;;
8058;SDS011;4072;42.668;23.396;2022-07-30T08:24:36;5.88;;;3.75;;
8058;SDS011;4072;42.668;23.396;2022-07-30T08:27:04;6.25;;;4.22;;
8058;SDS011;4072;42.668;23.396;2022-07-30T08:29:32;4.25;;;3.95;;
8058;SDS011;4072;42.668;23.396;2022-07-30T08:32:00;9.57;;;4.40;;
8058;SDS011;4072;42.668;23.396;2022-07-30T08:34:28;5.40;;;4.50;;
8058;SDS011;4072;42.668;23.396;2022-07-30T08:36:56;7.53;;;5.03;;
8058;SDS011;4072;42.668;23.396;2022-07-30T08:39:24;4.28;;;3.80;;
8058;SDS011;4072;42.668;23.396;2022-07-30T08:41:54;5.93;;;5.32;;
8058;SDS011;4072;42.668;23.396;2022-07-30T08:44:22;5.85;;;5.13;;
8058;SDS011;4072;42.668;23.396;2022-07-30T08:46:51;5.70;;;4.40;;
8058;SDS011;4072;42.668;23.396;2022-07-30T08:49:21;5.13;;;4.68;;
8058;SDS011;4072;42.668;23.396;2022-07-30T08:51:50;6.03;;;4.22;;
8058;SDS011;4072;42.668;23.396;2022-07-30T08:54:18;5.32;;;4.18;;
8058;SDS011;4072;42.668;23.396;2022-07-30T08:56:46;3.92;;;3.63;;
8058;SDS011;4072;42.668;23.396;2022-07-30T08:59:17;4.72;;;4.30;;
8058;SDS011;4072;42.668;23.396;2022-07-30T09:01:45;4.80;;;4.40;;
8058;SDS011;4072;42.668;23.396;2022-07-30T09:04:15;4.70;;;4.35;;
8058;SDS011;4072;42.668;23.396;2022-07-30T09:06:45;4.80;;;4.40;;
8058;SDS011;4072;42.668;23.396;2022-07-30T09:09:13;4.32;;;4.03;;
8058;SDS011;4072;42.668;23.396;2022-07-30T09:11:41;7.38;;;4.60;;
8058;SDS011;4072;42.668;23.396;2022-07-30T09:14:11;9.02;;;6.25;;
8058;SDS011;4072;42.668;23.396;2022-07-30T09:16:41;5.03;;;3.70;;
8058;SDS011;4072;42.668;23.396;2022-07-30T09:19:11;5.03;;;4.53;;
8058;SDS011;4072;42.668;23.396;2022-07-30T09:21:39;4.88;;;4.40;;
8058;SDS011;4072;42.668;23.396;2022-07-30T09:24:09;5.20;;;4.70;;
8058;SDS011;4072;42.668;23.396;2022-07-30T09:29:20;6.18;;;4.80;;
8058;SDS011;4072;42.668;23.396;2022-07-30T09:31:54;4.55;;;4.15;;
8058;SDS011;4072;42.668;23.396;2022-07-30T09:34:23;4.80;;;4.40;;
8058;SDS011;4072;42.668;23.396;2022-07-30T09:36:51;5.80;;;5.05;;
8058;SDS011;4072;42.668;23.396;2022-07-30T09:39:29;4.45;;;4.10;;
8058;SDS011;4072;42.668;23.396;2022-07-30T09:41:57;4.63;;;4.22;;
8058;SDS011;4072;42.668;23.396;2022-07-30T09:44:27;7.07;;;6.47;;
8058;SDS011;4072;42.668;23.396;2022-07-30T09:46:57;4.40;;;3.72;;
8058;SDS011;4072;42.668;23.396;2022-07-30T09:49:27;4.80;;;4.40;;
8058;SDS011;4072;42.668;23.396;2022-07-30T09:51:55;5.10;;;4.70;;
8058;SDS011;4072;42.668;23.396;2022-07-30T09:54:23;4.78;;;4.32;;
8058;SDS011;4072;42.668;23.396;2022-07-30T09:57:02;7.35;;;3.97;;
8058;SDS011;4072;42.668;23.396;2022-07-30T09:59:31;5.32;;;4.47;;
8058;SDS011;4072;42.668;23.396;2022-07-30T10:02:02;4.47;;;4.07;;
8058;SDS011;4072;42.668;23.396;2022-07-30T10:04:35;4.90;;;4.35;;
8058;SDS011;4072;42.668;23.396;2022-07-30T10:07:06;5.25;;;4.75;;
8058;SDS011;4072;42.668;23.396;2022-07-30T10:09:50;4.60;;;4.30;;
8058;SDS011;4072;42.668;23.396;2022-07-30T10:12:19;4.60;;;4.07;;
8058;SDS011;4072;42.668;23.396;2022-07-30T10:14:49;4.88;;;4.47;;
8058;SDS011;4072;42.668;23.396;2022-07-30T10:17:21;5.40;;;5.00;;
8058;SDS011;4072;42.668;23.396;2022-07-30T10:19:50;5.60;;;5.20;;
8058;SDS011;4072;42.668;23.396;2022-07-30T10:22:19;5.38;;;4.95;;
8058;SDS011;4072;42.668;23.396;2022-07-30T10:24:47;4.85;;;4.50;;
8058;SDS011;4072;42.668;23.396;2022-07-30T10:27:17;5.38;;;4.88;;
8058;SDS011;4072;42.668;23.396;2022-07-30T10:29:47;6.38;;;5.50;;
8058;SDS011;4072;42.668;23.396;2022-07-30T10:32:15;5.88;;;5.30;;
8058;SDS011;4072;42.668;23.396;2022-07-30T10:34:57;8.65;;;5.88;;
8058;SDS011;4072;42.668;23.396;2022-07-30T10:37:26;5.57;;;5.18;;
8058;SDS011;4072;42.668;23.396;2022-07-30T10:39:55;5.88;;;5.38;;
8058;SDS011;4072;42.668;23.396;2022-07-30T10:42:30;6.85;;;6.32;;
8058;SDS011;4072;42.668;23.396;2022-07-30T10:45:07;8.43;;;6.97;;
8058;SDS011;4072;42.668;23.396;2022-07-30T10:47:43;6.80;;;6.20;;
8058;SDS011;4072;42.668;23.396;2022-07-30T10:50:16;7.40;;;6.63;;
8058;SDS011;4072;42.668;23.396;2022-07-30T10:52:48;6.78;;;6.03;;
8058;SDS011;4072;42.668;23.396;2022-07-30T10:55:22;6.22;;;5.70;;
8058;SDS011;4072;42.668;23.396;2022-07-30T10:58:05;7.72;;;7.03;;
8058;SDS011;4072;42.668;23.396;2022-07-30T11:00:34;8.60;;;7.90;;
8058;SDS011;4072;42.668;23.396;2022-07-30T11:03:19;8.88;;;8.07;;
8058;SDS011;4072;42.668;23.396;2022-07-30T11:06:26;6.10;;;5.60;;
8058;SDS011;4072;42.668;23.396;2022-07-30T11:08:55;6.60;;;5.70;;
8058;SDS011;4072;42.668;23.396;2022-07-30T11:11:42;7.80;;;7.10;;
8058;SDS011;4072;42.668;23.396;2022-07-30T11:14:53;8.43;;;7.63;;
8058;SDS011;4072;42.668;23.396;2022-07-30T11:17:21;8.55;;;7.85;;
8058;SDS011;4072;42.668;23.396;2022-07-30T11:20:08;9.25;;;8.25;;
8058;SDS011;4072;42.668;23.396;2022-07-30T11:22:40;7.68;;;7.05;;
8058;SDS011;4072;42.668;23.396;2022-07-30T11:25:37;7.55;;;6.95;;
8058;SDS011;4072;42.668;23.396;2022-07-30T11:28:33;7.35;;;6.75;;
8058;SDS011;4072;42.668;23.396;2022-07-30T11:31:02;7.22;;;6.50;;
8058;SDS011;4072;42.668;23.396;2022-07-30T11:33:36;6.80;;;6.22;;
8058;SDS011;4072;42.668;23.396;2022-07-30T11:36:07;7.38;;;6.65;;
8058;SDS011;4072;42.668;23.396;2022-07-30T11:38:50;7.90;;;7.03;;
8058;SDS011;4072;42.668;23.396;2022-07-30T11:41:20;7.13;;;6.53;;
8058;SDS011;4072;42.668;23.396;2022-07-30T11:44:00;8.45;;;7.65;;
8058;SDS011;4072;42.668;23.396;2022-07-30T11:46:49;7.47;;;6.85;;
8058;SDS011;4072;42.668;23.396;2022-07-30T11:49:17;7.75;;;7.18;;
8058;SDS011;4072;42.668;23.396;2022-07-30T11:51:46;6.82;;;6.22;;
8058;SDS011;4072;42.668;23.396;2022-07-30T11:54:16;7.65;;;7.07;;
8058;SDS011;4072;42.668;23.396;2022-07-30T11:56:48;9.88;;;6.97;;
8058;SDS011;4072;42.668;23.396;2022-07-30T11:59:15;7.43;;;6.82;;
8058;SDS011;4072;42.668;23.396;2022-07-30T12:01:48;7.88;;;7.13;;
8058;SDS011;4072;42.668;23.396;2022-07-30T12:04:16;7.45;;;6.82;;
8058;SDS011;4072;42.668;23.396;2022-07-30T12:06:44;7.22;;;6.57;;
8058;SDS011;4072;42.668;23.396;2022-07-30T12:09:19;6.72;;;6.13;;
8058;SDS011;4072;42.668;23.396;2022-07-30T12:11:48;7.63;;;6.85;;
8058;SDS011;4072;42.668;23.396;2022-07-30T12:14:16;7.35;;;6.13;;
8058;SDS011;4072;42.668;23.396;2022-07-30T12:16:50;8.18;;;7.38;;
8058;SDS011;4072;42.668;23.396;2022-07-30T12:19:19;6.88;;;6.35;;
8058;SDS011;4072;42.668;23.396;2022-07-30T12:21:48;7.50;;;6.82;;
8058;SDS011;4072;42.668;23.396;2022-07-30T12:24:24;6.93;;;6.35;;
8058;SDS011;4072;42.668;23.396;2022-07-30T12:27:02;7.57;;;6.88;;
8058;SDS011;4072;42.668;23.396;2022-07-30T12:29:32;7.22;;;6.63;;
8058;SDS011;4072;42.668;23.396;2022-07-30T12:32:00;7.20;;;6.50;;
8058;SDS011;4072;42.668;23.396;2022-07-30T12:34:29;8.98;;;6.53;;
8058;SDS011;4072;42.668;23.396;2022-07-30T12:37:05;7.13;;;6.50;;
8058;SDS011;4072;42.668;23.396;2022-07-30T12:39:34;8.07;;;6.75;;
8058;SDS011;4072;42.668;23.396;2022-07-30T12:42:02;7.32;;;6.63;;
8058;SDS011;4072;42.668;23.396;2022-07-30T12:44:33;8.75;;;6.43;;
8058;SDS011;4072;42.668;23.396;2022-07-30T12:47:02;6.25;;;5.80;;
8058;SDS011;4072;42.668;23.396;2022-07-30T12:49:31;6.90;;;6.22;;
8058;SDS011;4072;42.668;23.396;2022-07-30T12:52:04;6.72;;;6.22;;
8058;SDS011;4072;42.668;23.396;2022-07-30T12:54:40;5.97;;;5.57;;
8058;SDS011;4072;42.668;23.396;2022-07-30T12:57:08;6.65;;;6.15;;
8058;SDS011;4072;42.668;23.396;2022-07-30T12:59:37;7.07;;;6.47;;
8058;SDS011;4072;42.668;23.396;2022-07-30T13:02:05;6.82;;;6.00;;
8058;SDS011;4072;42.668;23.396;2022-07-30T13:04:32;6.50;;;6.00;;
8058;SDS011;4072;42.668;23.396;2022-07-30T13:07:21;6.25;;;5.80;;
8058;SDS011;4072;42.668;23.396;2022-07-30T13:12:45;7.38;;;6.68;;
8058;SDS011;4072;42.668;23.396;2022-07-30T13:15:16;8.57;;;6.25;;
8058;SDS011;4072;42.668;23.396;2022-07-30T13:17:44;7.22;;;6.40;;
8058;SDS011;4072;42.668;23.396;2022-07-30T13:20:12;6.43;;;5.93;;
8058;SDS011;4072;42.668;23.396;2022-07-30T13:22:40;6.82;;;6.22;;
8058;SDS011;4072;42.668;23.396;2022-07-30T13:25:08;6.47;;;5.97;;
8058;SDS011;4072;42.668;23.396;2022-07-30T13:27:37;6.05;;;5.57;;
8058;SDS011;4072;42.668;23.396;2022-07-30T13:30:08;5.82;;;5.43;;
8058;SDS011;4072;42.668;23.396;2022-07-30T13:32:36;6.63;;;6.13;;
8058;SDS011;4072;42.668;23.396;2022-07-30T13:35:04;6.72;;;6.22;;
8058;SDS011;4072;42.668;23.396;2022-07-30T13:37:33;6.25;;;5.82;;
8058;SDS011;4072;42.668;23.396;2022-07-30T13:40:03;6.53;;;5.80;;
8058;SDS011;4072;42.668;23.396;2022-07-30T13:42:31;5.57;;;5.07;;
8058;SDS011;4072;42.668;23.396;2022-07-30T13:44:59;6.20;;;5.75;;
8058;SDS011;4072;42.668;23.396;2022-07-30T13:47:29;5.95;;;5.53;;
8058;SDS011;4072;42.668;23.396;2022-07-30T13:49:58;6.68;;;6.07;;
8058;SDS011;4072;42.668;23.396;2022-07-30T13:52:26;6.28;;;5.63;;
8058;SDS011;4072;42.668;23.396;2022-07-30T13:54:54;8.30;;;6.00;;
8058;SDS011;4072;42.668;23.396;2022-07-30T13:57:22;6.32;;;5.82;;
8058;SDS011;4072;42.668;23.396;2022-07-30T13:59:50;6.97;;;6.28;;
8058;SDS011;4072;42.668;23.396;2022-07-30T14:02:19;8.43;;;6.38;;
8058;SDS011;4072;42.668;23.396;2022-07-30T14:04:48;6.25;;;5.57;;
8058;SDS011;4072;42.668;23.396;2022-07-30T14:07:16;6.60;;;6.00;;
8058;SDS011;4072;42.668;23.396;2022-07-30T14:09:44;6.10;;;5.60;;
8058;SDS011;4072;42.668;23.396;2022-07-30T14:12:19;6.85;;;6.30;;
8058;SDS011;4072;42.668;23.396;2022-07-30T14:14:47;8.00;;;7.20;;
8058;SDS011;4072;42.668;23.396;2022-07-30T14:17:15;6.78;;;6.18;;
8058;SDS011;4072;42.668;23.396;2022-07-30T14:19:44;7.15;;;6.55;;
8058;SDS011;4072;42.668;23.396;2022-07-30T14:22:14;6.95;;;6.32;;
8058;SDS011;4072;42.668;23.396;2022-07-30T14:24:43;6.25;;;5.82;;
8058;SDS011;4072;42.668;23.396;2022-07-30T14:27:11;6.63;;;6.05;;
8058;SDS011;4072;42.668;23.396;2022-07-30T14:29:39;7.07;;;6.40;;
8058;SDS011;4072;42.668;23.396;2022-07-30T14:32:07;7.43;;;6.10;;
8058;SDS011;4072;42.668;23.396;2022-07-30T14:34:35;8.68;;;6.70;;
8058;SDS011;4072;42.668;23.396;2022-07-30T14:37:04;6.85;;;6.03;;
8058;SDS011;4072;42.668;23.396;2022-07-30T14:39:40;6.72;;;6.22;;
8058;SDS011;4072;42.668;23.396;2022-07-30T14:42:08;6.97;;;6.35;;
8058;SDS011;4072;42.668;23.396;2022-07-30T14:44:38;7.20;;;6.60;;
8058;SDS011;4072;42.668;23.396;2022-07-30T14:47:06;7.63;;;6.88;;
8058;SDS011;4072;42.668;23.396;2022-07-30T14:49:34;8.02;;;6.90;;
8058;SDS011;4072;42.668;23.396;2022-07-30T14:52:03;8.60;;;7.45;;
8058;SDS011;4072;42.668;23.396;2022-07-30T14:54:31;8.18;;;7.38;;
8058;SDS011;4072;42.668;23.396;2022-07-30T14:57:01;8.10;;;6.65;;
8058;SDS011;4072;42.668;23.396;2022-07-30T14:59:29;10.88;;;6.78;;
8058;SDS011;4072;42.668;23.396;2022-07-30T15:01:57;11.23;;;6.70;;
8058;SDS011;4072;42.668;23.396;2022-07-30T15:04:26;9.95;;;6.55;;
8058;SDS011;4072;42.668;23.396;2022-07-30T15:06:54;9.02;;;6.50;;
8058;SDS011;4072;42.668;23.396;2022-07-30T15:09:22;6.43;;;5.82;;
8058;SDS011;4072;42.668;23.396;2022-07-30T15:11:51;10.27;;;6.10;;
8058;SDS011;4072;42.668;23.396;2022-07-30T15:14:36;6.72;;;6.22;;
8058;SDS011;4072;42.668;23.396;2022-07-30T15:17:05;10.30;;;6.75;;
8058;SDS011;4072;42.668;23.396;2022-07-30T15:19:33;8.43;;;7.65;;
8058;SDS011;4072;42.668;23.396;2022-07-30T15:22:01;11.15;;;10.15;;
8058;SDS011;4072;42.668;23.396;2022-07-30T15:24:29;9.02;;;8.10;;
8058;SDS011;4072;42.668;23.396;2022-07-30T15:26:57;8.23;;;6.97;;